createdAt,value
2022-09-21T00:00:15.547Z,86
2022-09-21T00:05:18.543Z,86
2022-09-21T00:10:15.381Z,86
2022-09-21T00:15:19.319Z,86
2022-09-21T00:20:18.556Z,86
2022-09-21T00:25:15.586Z,86
2022-09-21T00:30:15.618Z,86
2022-09-21T00:35:18.563Z,86
2022-09-21T00:40:15.611Z,86
2022-09-21T00:45:18.561Z,87
2022-09-21T00:50:16.298Z,87
2022-09-21T00:55:18.601Z,87
2022-09-21T01:00:18.648Z,87
2022-09-21T01:05:18.576Z,87
2022-09-21T01:10:18.512Z,87
2022-09-21T01:15:15.660Z,87
2022-09-21T01:20:19.294Z,87
2022-09-21T01:25:18.554Z,86
2022-09-21T01:30:18.530Z,86
2022-09-21T01:35:18.553Z,86
2022-09-21T01:40:18.615Z,86
2022-09-21T01:45:18.572Z,86
2022-09-21T01:50:18.581Z,86
2022-09-21T01:55:16.300Z,86
2022-09-21T02:00:18.582Z,85
2022-09-21T02:05:18.574Z,85
2022-09-21T02:10:15.631Z,85
2022-09-21T02:15:18.574Z,85
2022-09-21T02:20:15.630Z,85
2022-09-21T02:25:19.318Z,85
2022-09-21T02:30:18.590Z,85
2022-09-21T02:35:15.667Z,85
2022-09-21T02:40:18.626Z,85
2022-09-21T02:45:18.568Z,85
2022-09-21T02:50:18.613Z,85
2022-09-21T02:55:18.570Z,85
2022-09-21T03:00:16.322Z,85
2022-09-21T03:05:18.600Z,85
2022-09-21T03:10:18.614Z,85
2022-09-21T03:15:15.675Z,85
2022-09-21T03:20:18.722Z,85
2022-09-21T03:25:15.555Z,85
2022-09-21T03:30:19.361Z,85
2022-09-21T03:35:18.647Z,85
2022-09-21T03:40:15.701Z,86
2022-09-21T03:45:18.621Z,86
2022-09-21T03:50:18.624Z,86
2022-09-21T03:55:15.633Z,86
2022-09-21T04:00:20.611Z,86
2022-09-21T04:05:19.911Z,87
2022-09-21T04:10:16.949Z,87
2022-09-21T04:15:19.909Z,87
2022-09-21T04:20:19.984Z,88
2022-09-21T04:25:19.920Z,88
2022-09-21T04:30:19.871Z,89
2022-09-21T04:35:17.716Z,89
2022-09-21T04:40:19.947Z,89
2022-09-21T04:45:19.873Z,89
2022-09-21T04:50:16.927Z,89
2022-09-21T04:55:19.919Z,89
2022-09-21T05:00:16.937Z,90
2022-09-21T05:05:20.641Z,90
2022-09-21T05:10:20.096Z,90
2022-09-21T05:15:19.855Z,90
2022-09-21T05:20:19.910Z,90
2022-09-21T05:25:19.928Z,90
2022-09-21T05:30:19.910Z,90
2022-09-21T05:35:19.931Z,90
2022-09-21T05:40:20.583Z,90
2022-09-21T05:45:19.939Z,90
2022-09-21T05:50:19.942Z,90
2022-09-21T05:55:19.935Z,90
2022-09-21T06:00:19.939Z,90
2022-09-21T06:05:19.942Z,91
2022-09-21T06:10:16.945Z,91
2022-09-21T06:15:20.799Z,91
2022-09-21T06:20:19.960Z,91
2022-09-21T06:25:20.303Z,91
2022-09-21T06:30:19.899Z,91
2022-09-21T06:35:19.930Z,91
2022-09-21T06:40:19.969Z,91
2022-09-21T06:45:19.940Z,91
2022-09-21T06:50:17.544Z,91
2022-09-21T06:55:16.998Z,91
2022-09-21T07:00:19.969Z,91
2022-09-21T07:05:16.810Z,92
2022-09-21T07:10:20.854Z,92
2022-09-21T07:15:19.949Z,92
2022-09-21T07:20:17.001Z,92
2022-09-21T07:25:20.688Z,92
2022-09-21T07:30:19.960Z,92
2022-09-21T07:35:19.961Z,92
2022-09-21T07:40:16.855Z,92
2022-09-21T07:45:17.022Z,92
2022-09-21T07:50:19.956Z,92
2022-09-21T07:55:19.956Z,92
2022-09-21T08:00:17.729Z,92
2022-09-21T08:05:19.976Z,92
2022-09-21T08:10:19.975Z,92
2022-09-21T08:15:43.941Z,92
2022-09-21T08:20:19.992Z,92
2022-09-21T08:25:17.241Z,92
2022-09-21T08:30:17.021Z,92
2022-09-21T08:35:20.729Z,92
2022-09-21T08:40:17.107Z,92
2022-09-21T08:45:17.055Z,92
2022-09-21T08:50:19.988Z,92
2022-09-21T08:55:17.818Z,92
2022-09-21T09:00:16.995Z,92
2022-09-21T09:05:17.030Z,92
2022-09-21T09:10:17.620Z,92
2022-09-21T09:15:20.038Z,92
2022-09-21T09:20:20.026Z,92
2022-09-21T09:25:17.038Z,92
2022-09-21T09:30:19.994Z,92
2022-09-21T09:35:19.999Z,92
2022-09-21T09:40:20.847Z,92
2022-09-21T09:45:22.135Z,92
2022-09-21T09:50:16.845Z,92
2022-09-21T09:55:20.028Z,92
2022-09-21T10:00:20.039Z,92
2022-09-21T10:05:17.067Z,92
2022-09-21T10:10:20.086Z,92
2022-09-21T10:15:20.773Z,92
2022-09-21T10:20:19.981Z,92
2022-09-21T10:25:20.112Z,92
2022-09-21T10:30:20.090Z,92
2022-09-21T10:35:17.115Z,92
2022-09-21T10:40:20.273Z,92
2022-09-21T10:45:20.047Z,92
2022-09-21T10:50:17.820Z,92
2022-09-21T10:55:20.076Z,92
2022-09-21T11:00:16.994Z,92
2022-09-21T11:05:17.092Z,92
2022-09-21T11:10:20.082Z,92
2022-09-21T11:15:20.060Z,92
2022-09-21T11:20:17.136Z,92
2022-09-21T11:25:20.964Z,92
2022-09-21T11:30:20.054Z,92
2022-09-21T11:35:17.077Z,92
2022-09-21T11:40:20.238Z,92
2022-09-21T11:45:20.045Z,92
2022-09-21T11:50:30.291Z,93
2022-09-21T11:55:17.161Z,93
2022-09-21T12:00:20.851Z,92
2022-09-21T12:05:20.104Z,93
2022-09-21T12:10:17.118Z,93
2022-09-21T12:15:20.148Z,93
2022-09-21T12:20:17.130Z,93
2022-09-21T12:25:20.148Z,93
2022-09-21T12:30:20.182Z,93
2022-09-21T12:35:20.907Z,93
2022-09-21T12:40:17.213Z,93
2022-09-21T12:45:20.113Z,92
2022-09-21T12:50:20.065Z,91
2022-09-21T12:55:17.572Z,91
2022-09-21T13:00:17.136Z,90
2022-09-21T13:05:20.102Z,89
2022-09-21T13:10:17.894Z,89
2022-09-21T13:15:20.142Z,88
2022-09-21T13:20:20.080Z,88
2022-09-21T13:25:17.128Z,87
2022-09-21T13:30:20.141Z,87
2022-09-21T13:35:20.120Z,86
2022-09-21T13:40:20.840Z,86
2022-09-21T13:45:20.148Z,85
2022-09-21T13:50:20.101Z,84
2022-09-21T13:55:17.172Z,83
2022-09-21T14:00:20.133Z,81
2022-09-21T14:05:20.142Z,80
2022-09-21T14:10:17.171Z,80
2022-09-21T14:15:20.943Z,78
2022-09-21T14:20:20.128Z,78
2022-09-21T14:25:17.199Z,78
2022-09-21T14:30:20.145Z,77
2022-09-21T14:35:20.166Z,76
2022-09-21T14:40:17.206Z,75
2022-09-21T14:45:20.193Z,75
2022-09-21T14:50:20.952Z,74
2022-09-21T14:55:20.203Z,73
2022-09-21T15:00:20.160Z,74
2022-09-21T15:05:20.180Z,75
2022-09-21T15:10:17.161Z,75
2022-09-21T15:15:20.222Z,73
2022-09-21T15:20:20.166Z,74
2022-09-21T15:25:17.869Z,74
2022-09-21T15:30:20.187Z,72
2022-09-21T15:35:17.056Z,71
2022-09-21T15:40:17.277Z,72
2022-09-21T15:45:20.193Z,72
2022-09-21T15:50:20.221Z,73
2022-09-21T15:55:17.184Z,74
2022-09-21T16:00:20.950Z,74
2022-09-21T16:05:20.212Z,74
2022-09-21T16:10:17.028Z,74
2022-09-21T16:15:20.159Z,72
2022-09-21T16:20:20.160Z,72
2022-09-21T16:25:17.195Z,72
2022-09-21T16:30:20.218Z,72
2022-09-21T16:35:20.991Z,72
2022-09-21T16:40:17.268Z,72
2022-09-21T16:45:20.302Z,72
2022-09-21T16:50:20.208Z,72
2022-09-21T16:55:17.272Z,72
2022-09-21T17:00:20.232Z,72
2022-09-21T17:05:20.253Z,73
2022-09-21T17:10:17.943Z,72
2022-09-21T17:15:17.215Z,73
2022-09-21T17:20:20.236Z,72
2022-09-21T17:25:20.176Z,73
2022-09-21T17:30:17.279Z,73
2022-09-21T17:35:20.235Z,72
2022-09-21T17:40:21.068Z,73
2022-09-21T17:45:20.214Z,72
2022-09-21T17:50:20.223Z,73
2022-09-21T17:55:20.181Z,72
2022-09-21T18:00:17.321Z,73
2022-09-21T18:05:20.256Z,72
2022-09-21T18:10:17.254Z,72
2022-09-21T18:15:21.075Z,72
2022-09-21T18:20:20.277Z,73
2022-09-21T18:25:20.219Z,73
2022-09-21T18:30:17.272Z,72
2022-09-21T18:35:20.241Z,72
2022-09-21T18:40:20.277Z,72
2022-09-21T18:45:17.301Z,71
2022-09-21T18:50:21.090Z,72
2022-09-21T18:55:20.207Z,71
2022-09-21T19:00:17.260Z,71
2022-09-21T19:05:20.287Z,70
2022-09-21T19:10:17.261Z,69
2022-09-21T19:15:36.450Z,69
2022-09-21T19:20:23.909Z,69
2022-09-21T19:25:20.895Z,70
2022-09-21T19:30:20.274Z,70
2022-09-21T19:35:20.252Z,70
2022-09-21T19:40:20.312Z,70
2022-09-21T19:45:20.288Z,70
2022-09-21T19:50:20.293Z,71
2022-09-21T19:55:20.289Z,71
2022-09-21T20:00:18.064Z,70
2022-09-21T20:05:20.358Z,71
2022-09-21T20:10:17.114Z,70
2022-09-21T20:15:17.355Z,71
2022-09-21T20:20:20.251Z,70
2022-09-21T20:25:17.317Z,70
2022-09-21T20:30:21.022Z,70
2022-09-21T20:35:20.302Z,70
2022-09-21T20:40:17.436Z,70
2022-09-21T20:45:20.315Z,70
2022-09-21T20:50:17.298Z,70
2022-09-21T20:55:17.354Z,70
2022-09-21T21:00:20.339Z,70
2022-09-21T21:05:20.972Z,70
2022-09-21T21:10:17.349Z,70
2022-09-21T21:15:20.327Z,70
2022-09-21T21:20:20.301Z,70
2022-09-21T21:25:17.281Z,71
2022-09-21T21:30:20.324Z,71
2022-09-21T21:35:20.330Z,71
2022-09-21T21:40:18.157Z,71
2022-09-21T21:45:20.336Z,71
2022-09-21T21:50:20.302Z,71
2022-09-21T21:55:17.381Z,72
2022-09-21T22:00:17.373Z,72
2022-09-21T22:05:20.570Z,72
2022-09-21T22:10:17.400Z,72
2022-09-21T22:15:21.125Z,72
2022-09-21T22:20:18.398Z,72
2022-09-21T22:25:17.346Z,72
2022-09-21T22:30:18.324Z,72
2022-09-21T22:35:20.347Z,72
2022-09-21T22:40:15.442Z,73
2022-09-21T22:45:18.344Z,73
2022-09-21T22:50:19.113Z,73
2022-09-21T22:55:15.380Z,73
2022-09-21T23:00:18.327Z,73
2022-09-21T23:05:18.350Z,73
2022-09-21T23:10:15.402Z,73
2022-09-21T23:15:18.386Z,74
2022-09-21T23:20:18.339Z,73
2022-09-21T23:25:16.245Z,74
2022-09-21T23:30:18.416Z,75
2022-09-21T23:35:18.353Z,76
2022-09-21T23:40:15.474Z,77
2022-09-21T23:45:18.366Z,77
2022-09-21T23:50:18.371Z,78
2022-09-21T23:55:15.392Z,78
